sensor_id;sensor_type;location;lat;lon;timestamp;pressure;altitude;pressure_sealevel;temperature;humidity
42621;BME280;28252;53.336;-6.298;2023-07-28T00:00:12;99751.69;;;23.63;100.00
42621;BME280;28252;53.336;-6.298;2023-07-28T00:00:48;99753.38;;;23.64;100.00
42621;BME280;28252;53.336;-6.298;2023-07-28T00:01:21;99753.59;;;23.62;100.00
42621;BME280;28252;53.336;-6.298;2023-07-28T00:01:52;99758.00;;;23.63;100.00
42621;BME280;28252;53.336;-6.298;2023-07-28T00:02:30;99755.28;;;23.63;100.00
42621;BME280;28252;53.336;-6.298;2023-07-28T00:03:03;99762.34;;;23.64;100.00
42621;BME280;28252;53.336;-6.298;2023-07-28T00:03:39;99763.44;;;23.63;100.00
42621;BME280;28252;53.336;-6.298;2023-07-28T00:04:12;99760.72;;;23.63;100.00
42621;BME280;28252;53.336;-6.298;2023-07-28T00:04:43;99771.59;;;23.63;100.00
42621;BME280;28252;53.336;-6.298;2023-07-28T00:05:16;99768.88;;;23.63;100.00
42621;BME280;28252;53.336;-6.298;2023-07-28T00:05:49;99768.88;;;23.63;100.00
42621;BME280;28252;53.336;-6.298;2023-07-28T00:06:21;99768.88;;;23.63;100.00
42621;BME280;28252;53.336;-6.298;2023-07-28T00:06:58;99768.88;;;23.63;100.00
42621;BME280;28252;53.336;-6.298;2023-07-28T00:07:34;99758.00;;;23.63;100.00
42621;BME280;28252;53.336;-6.298;2023-07-28T00:08:07;99761.53;;;23.64;100.00
42621;BME280;28252;53.336;-6.298;2023-07-28T00:08:40;99759.63;;;23.64;100.00
42621;BME280;28252;53.336;-6.298;2023-07-28T00:09:13;99756.09;;;23.64;100.00
42621;BME280;28252;53.336;-6.298;2023-07-28T00:09:46;99759.84;;;23.63;100.00
42621;BME280;28252;53.336;-6.298;2023-07-28T00:10:22;99758.00;;;23.63;100.00
42621;BME280;28252;53.336;-6.298;2023-07-28T00:10:53;99754.22;;;23.64;100.00
42621;BME280;28252;53.336;-6.298;2023-07-28T00:11:26;99759.63;;;23.64;100.00
42621;BME280;28252;53.336;-6.298;2023-07-28T00:12:00;99749.84;;;23.63;100.00
42621;BME280;28252;53.336;-6.298;2023-07-28T00:12:31;99755.28;;;23.63;100.00
42621;BME280;28252;53.336;-6.298;2023-07-28T00:13:02;99758.81;;;23.64;100.00
42621;BME280;28252;53.336;-6.298;2023-07-28T00:13:33;99754.22;;;23.64;100.00
42621;BME280;28252;53.336;-6.298;2023-07-28T00:14:08;99752.56;;;23.63;100.00
42621;BME280;28252;53.336;-6.298;2023-07-28T00:14:42;99757.13;;;23.63;100.00
42621;BME280;28252;53.336;-6.298;2023-07-28T00:19:17;99753.59;;;23.62;100.00
42621;BME280;28252;53.336;-6.298;2023-07-28T00:19:54;99756.31;;;23.62;100.00
42621;BME280;28252;53.336;-6.298;2023-07-28T00:20:27;99759.03;;;23.62;100.00
42621;BME280;28252;53.336;-6.298;2023-07-28T00:21:00;99759.03;;;23.62;100.00
42621;BME280;28252;53.336;-6.298;2023-07-28T00:21:31;99760.06;;;23.61;100.00
42621;BME280;28252;53.336;-6.298;2023-07-28T00:22:07;99760.06;;;23.61;100.00
42621;BME280;28252;53.336;-6.298;2023-07-28T00:22:45;99760.06;;;23.61;100.00
42621;BME280;28252;53.336;-6.298;2023-07-28T00:23:19;99767.19;;;23.62;100.00
42621;BME280;28252;53.336;-6.298;2023-07-28T00:23:54;99761.75;;;23.62;100.00
42621;BME280;28252;53.336;-6.298;2023-07-28T00:24:28;99767.41;;;23.61;100.00
42621;BME280;28252;53.336;-6.298;2023-07-28T00:24:59;99767.19;;;23.62;100.00
42621;BME280;28252;53.336;-6.298;2023-07-28T00:25:34;99767.19;;;23.62;100.00
42621;BME280;28252;53.336;-6.298;2023-07-28T00:26:13;99775.34;;;23.62;100.00
42621;BME280;28252;53.336;-6.298;2023-07-28T00:26:46;99775.34;;;23.62;100.00
42621;BME280;28252;53.336;-6.298;2023-07-28T00:27:19;99772.63;;;23.62;100.00
42621;BME280;28252;53.336;-6.298;2023-07-28T00:27:50;99772.63;;;23.62;100.00
42621;BME280;28252;53.336;-6.298;2023-07-28T00:28:21;99769.91;;;23.62;100.00
42621;BME280;28252;53.336;-6.298;2023-07-28T00:28:56;99775.34;;;23.62;100.00
42621;BME280;28252;53.336;-6.298;2023-07-28T00:29:28;99767.19;;;23.62;100.00
42621;BME280;28252;53.336;-6.298;2023-07-28T00:30:01;99767.19;;;23.62;100.00
42621;BME280;28252;53.336;-6.298;2023-07-28T00:30:35;99772.63;;;23.62;100.00
42621;BME280;28252;53.336;-6.298;2023-07-28T00:31:09;99771.78;;;23.62;100.00
42621;BME280;28252;53.336;-6.298;2023-07-28T00:31:44;99767.19;;;23.62;100.00
42621;BME280;28252;53.336;-6.298;2023-07-28T00:32:21;99772.63;;;23.62;100.00
42621;BME280;28252;53.336;-6.298;2023-07-28T00:32:52;99765.50;;;23.61;100.00
42621;BME280;28252;53.336;-6.298;2023-07-28T00:33:23;99773.66;;;23.61;100.00
42621;BME280;28252;53.336;-6.298;2023-07-28T00:33:54;99761.97;;;23.61;100.00
42621;BME280;28252;53.336;-6.298;2023-07-28T00:34:25;99760.94;;;23.62;100.00
42621;BME280;28252;53.336;-6.298;2023-07-28T00:35:04;99768.22;;;23.61;100.00
42621;BME280;28252;53.336;-6.298;2023-07-28T00:35:37;99756.53;;;23.61;100.00
42621;BME280;28252;53.336;-6.298;2023-07-28T00:36:11;99761.75;;;23.62;100.00
42621;BME280;28252;53.336;-6.298;2023-07-28T00:36:46;99765.50;;;23.61;100.00
42621;BME280;28252;53.336;-6.298;2023-07-28T00:37:24;99766.38;;;23.62;100.00
42621;BME280;28252;53.336;-6.298;2023-07-28T00:37:59;99768.22;;;23.61;100.00
42621;BME280;28252;53.336;-6.298;2023-07-28T00:38:33;99764.69;;;23.61;100.00
42621;BME280;28252;53.336;-6.298;2023-07-28T00:39:06;99766.38;;;23.62;100.00
42621;BME280;28252;53.336;-6.298;2023-07-28T00:39:40;99760.94;;;23.62;100.00
42621;BME280;28252;53.336;-6.298;2023-07-28T00:40:16;99772.63;;;23.62;100.00
42621;BME280;28252;53.336;-6.298;2023-07-28T00:40:49;99764.69;;;23.61;100.00
42621;BME280;28252;53.336;-6.298;2023-07-28T00:41:23;99766.38;;;23.62;100.00
42621;BME280;28252;53.336;-6.298;2023-07-28T00:41:54;99769.91;;;23.62;100.00
42621;BME280;28252;53.336;-6.298;2023-07-28T00:42:28;99759.84;;;23.63;100.00
42621;BME280;28252;53.336;-6.298;2023-07-28T00:43:03;99765.50;;;23.61;100.00
42621;BME280;28252;53.336;-6.298;2023-07-28T00:43:40;99760.06;;;23.61;100.00
42621;BME280;28252;53.336;-6.298;2023-07-28T00:44:13;99766.38;;;23.62;100.00
42621;BME280;28252;53.336;-6.298;2023-07-28T00:44:48;99764.69;;;23.61;100.00
42621;BME280;28252;53.336;-6.298;2023-07-28T00:45:23;99774.72;;;23.60;100.00
42621;BME280;28252;53.336;-6.298;2023-07-28T00:45:58;99775.56;;;23.61;100.00
42621;BME280;28252;53.336;-6.298;2023-07-28T00:46:29;99778.28;;;23.61;100.00
42621;BME280;28252;53.336;-6.298;2023-07-28T00:47:03;99772.84;;;23.61;100.00
42621;BME280;28252;53.336;-6.298;2023-07-28T00:47:36;99781.00;;;23.61;100.00
42621;BME280;28252;53.336;-6.298;2023-07-28T00:48:13;99787.25;;;23.61;100.00
42621;BME280;28252;53.336;-6.298;2023-07-28T00:48:45;99779.31;;;23.60;100.00
42621;BME280;28252;53.336;-6.298;2023-07-28T00:58:50;99768.03;;;23.56;100.00
42621;BME280;28252;53.336;-6.298;2023-07-28T00:59:24;99774.31;;;23.57;100.00
42621;BME280;28252;53.336;-6.298;2023-07-28T01:00:00;99774.53;;;23.55;100.00
42621;BME280;28252;53.336;-6.298;2023-07-28T01:00:32;99773.47;;;23.56;100.00
42621;BME280;28252;53.336;-6.298;2023-07-28T01:01:10;99777.03;;;23.57;100.00
42621;BME280;28252;53.336;-6.298;2023-07-28T01:01:41;99777.25;;;23.55;100.00
42621;BME280;28252;53.336;-6.298;2023-07-28T01:02:15;99773.47;;;23.56;100.00
42621;BME280;28252;53.336;-6.298;2023-07-28T01:02:50;99785.19;;;23.57;100.00
42621;BME280;28252;53.336;-6.298;2023-07-28T01:03:28;99778.91;;;23.56;100.00
42621;BME280;28252;53.336;-6.298;2023-07-28T01:04:00;99786.03;;;23.57;100.00
42621;BME280;28252;53.336;-6.298;2023-07-28T01:04:34;99781.63;;;23.56;100.00
42621;BME280;28252;53.336;-6.298;2023-07-28T01:05:07;99784.34;;;23.56;100.00
42621;BME280;28252;53.336;-6.298;2023-07-28T01:07:05;99770.75;;;23.56;100.00
42621;BME280;28252;53.336;-6.298;2023-07-28T01:07:43;99765.31;;;23.56;100.00
42621;BME280;28252;53.336;-6.298;2023-07-28T01:08:59;99768.69;;;23.58;100.00
42621;BME280;28252;53.336;-6.298;2023-07-28T01:10:06;99766.16;;;23.57;100.00
42621;BME280;28252;53.336;-6.298;2023-07-28T01:10:30;99762.59;;;23.56;100.00
42621;BME280;28252;53.336;-6.298;2023-07-28T01:11:04;99763.47;;;23.57;100.00
42621;BME280;28252;53.336;-6.298;2023-07-28T01:11:35;99757.16;;;23.56;100.00
42621;BME280;28252;53.336;-6.298;2023-07-28T01:12:11;99759.06;;;23.56;100.00
42621;BME280;28252;53.336;-6.298;2023-07-28T01:12:43;99762.59;;;23.56;100.00
42621;BME280;28252;53.336;-6.298;2023-07-28T01:13:18;99754.44;;;23.56;100.00
42621;BME280;28252;53.336;-6.298;2023-07-28T01:13:51;99747.16;;;23.57;100.00
42621;BME280;28252;53.336;-6.298;2023-07-28T01:14:22;99751.72;;;23.56;100.00
42621;BME280;28252;53.336;-6.298;2023-07-28T01:14:55;99753.41;;;23.57;100.00
42621;BME280;28252;53.336;-6.298;2023-07-28T01:15:26;99746.28;;;23.56;100.00
42621;BME280;28252;53.336;-6.298;2023-07-28T01:15:57;99748.19;;;23.56;100.00
42621;BME280;28252;53.336;-6.298;2023-07-28T01:16:38;99739.22;;;23.55;100.00
42621;BME280;28252;53.336;-6.298;2023-07-28T01:17:12;99749.00;;;23.56;100.00
42621;BME280;28252;53.336;-6.298;2023-07-28T01:17:45;99740.84;;;23.56;100.00
42621;BME280;28252;53.336;-6.298;2023-07-28T01:18:19;99742.53;;;23.57;100.00
42621;BME280;28252;53.336;-6.298;2023-07-28T01:18:55;99747.16;;;23.57;100.00
42621;BME280;28252;53.336;-6.298;2023-07-28T01:19:28;99740.84;;;23.56;100.00
42621;BME280;28252;53.336;-6.298;2023-07-28T01:20:03;99735.41;;;23.56;100.00
42621;BME280;28252;53.336;-6.298;2023-07-28T01:20:42;99741.72;;;23.57;100.00
42621;BME280;28252;53.336;-6.298;2023-07-28T01:21:22;99732.69;;;23.56;100.00
42621;BME280;28252;53.336;-6.298;2023-07-28T01:22:22;99735.41;;;23.56;100.00
42621;BME280;28252;53.336;-6.298;2023-07-28T01:23:47;99734.59;;;23.56;100.00
42621;BME280;28252;53.336;-6.298;2023-07-28T01:24:26;99733.78;;;23.55;100.00
42621;BME280;28252;53.336;-6.298;2023-07-28T01:25:48;99731.88;;;23.56;100.00
42621;BME280;28252;53.336;-6.298;2023-07-28T01:25:59;99740.03;;;23.56;100.00
42621;BME280;28252;53.336;-6.298;2023-07-28T01:26:40;99743.78;;;23.55;100.00
42621;BME280;28252;53.336;-6.298;2023-07-28T01:27:18;99744.63;;;23.55;100.00
42621;BME280;28252;53.336;-6.298;2023-07-28T01:27:51;99746.28;;;23.56;100.00
42621;BME280;28252;53.336;-6.298;2023-07-28T01:28:29;99749.00;;;23.56;100.00
42621;BME280;28252;53.336;-6.298;2023-07-28T01:29:50;99749.88;;;23.57;100.00
42621;BME280;28252;53.336;-6.298;2023-07-28T01:30:23;99739.22;;;23.55;100.00
42621;BME280;28252;53.336;-6.298;2023-07-28T01:30:57;99744.63;;;23.55;100.00
42621;BME280;28252;53.336;-6.298;2023-07-28T01:31:28;99739.22;;;23.55;100.00
42621;BME280;28252;53.336;-6.298;2023-07-28T01:31:59;99735.41;;;23.56;100.00
42621;BME280;28252;53.336;-6.298;2023-07-28T01:32:30;99737.31;;;23.56;100.00
42621;BME280;28252;53.336;-6.298;2023-07-28T01:33:10;99740.84;;;23.56;100.00
42621;BME280;28252;53.336;-6.298;2023-07-28T01:33:43;99746.28;;;23.56;100.00
42621;BME280;28252;53.336;-6.298;2023-07-28T01:34:19;99748.41;;;23.54;100.00
42621;BME280;28252;53.336;-6.298;2023-07-28T01:34:50;99748.41;;;23.54;100.00
42621;BME280;28252;53.336;-6.298;2023-07-28T01:35:24;99753.63;;;23.56;100.00
42621;BME280;28252;53.336;-6.298;2023-07-28T01:36:02;99761.78;;;23.56;100.00
42621;BME280;28252;53.336;-6.298;2023-07-28T01:36:38;99752.78;;;23.55;100.00
42621;BME280;28252;53.336;-6.298;2023-07-28T01:37:15;99760.94;;;23.55;100.00
42621;BME280;28252;53.336;-6.298;2023-07-28T01:37:51;99762.59;;;23.56;100.00
42621;BME280;28252;53.336;-6.298;2023-07-28T01:38:22;99756.34;;;23.56;100.00
42621;BME280;28252;53.336;-6.298;2023-07-28T01:38:55;99758.22;;;23.55;100.00
42621;BME280;28252;53.336;-6.298;2023-07-28T01:39:26;99757.16;;;23.56;100.00
42621;BME280;28252;53.336;-6.298;2023-07-28T01:40:05;99750.06;;;23.55;100.00
42621;BME280;28252;53.336;-6.298;2023-07-28T01:40:36;99755.50;;;23.55;100.00
42621;BME280;28252;53.336;-6.298;2023-07-28T01:41:07;99755.50;;;23.55;100.00
42621;BME280;28252;53.336;-6.298;2023-07-28T01:41:38;99755.50;;;23.55;100.00
42621;BME280;28252;53.336;-6.298;2023-07-28T01:42:18;99751.13;;;23.54;100.00
42621;BME280;28252;53.336;-6.298;2023-07-28T01:42:51;99755.50;;;23.55;100.00
42621;BME280;28252;53.336;-6.298;2023-07-28T01:43:25;99749.22;;;23.55;100.00
42621;BME280;28252;53.336;-6.298;2023-07-28T01:43:56;99747.34;;;23.55;100.00
42621;BME280;28252;53.336;-6.298;2023-07-28T01:44:29;99751.94;;;23.55;100.00
42621;BME280;28252;53.336;-6.298;2023-07-28T01:45:07;99753.84;;;23.54;100.00
42621;BME280;28252;53.336;-6.298;2023-07-28T01:45:43;99756.56;;;23.54;100.00
42621;BME280;28252;53.336;-6.298;2023-07-28T01:46:14;99752.78;;;23.55;100.00
42621;BME280;28252;53.336;-6.298;2023-07-28T01:46:51;99756.56;;;23.54;100.00
42621;BME280;28252;53.336;-6.298;2023-07-28T01:47:27;99753.84;;;23.54;100.00
42621;BME280;28252;53.336;-6.298;2023-07-28T01:48:08;99757.38;;;23.55;100.00
42621;BME280;28252;53.336;-6.298;2023-07-28T01:48:44;99753.84;;;23.54;100.00
42621;BME280;28252;53.336;-6.298;2023-07-28T01:49:17;99753.00;;;23.54;100.00
42621;BME280;28252;53.336;-6.298;2023-07-28T01:49:53;99747.56;;;23.54;100.00
42621;BME280;28252;53.336;-6.298;2023-07-28T01:50:26;99746.75;;;23.53;100.00
42621;BME280;28252;53.336;-6.298;2023-07-28T01:51:04;99746.75;;;23.53;100.00
42621;BME280;28252;53.336;-6.298;2023-07-28T01:51:39;99750.28;;;23.54;100.00
42621;BME280;28252;53.336;-6.298;2023-07-28T01:52:13;99744.03;;;23.53;100.00
42621;BME280;28252;53.336;-6.298;2023-07-28T01:52:46;99746.75;;;23.53;100.00
42621;BME280;28252;53.336;-6.298;2023-07-28T01:54:08;99757.63;;;23.53;100.00
42621;BME280;28252;53.336;-6.298;2023-07-28T01:54:43;99751.31;;;23.53;100.00
42621;BME280;28252;53.336;-6.298;2023-07-28T01:55:14;99752.41;;;23.52;100.00
42621;BME280;28252;53.336;-6.298;2023-07-28T01:55:48;99752.41;;;23.52;100.00
42621;BME280;28252;53.336;-6.298;2023-07-28T01:56:29;99756.97;;;23.51;100.00
42621;BME280;28252;53.336;-6.298;2023-07-28T01:57:07;99750.50;;;23.52;100.00
42621;BME280;28252;53.336;-6.298;2023-07-28T01:57:40;99753.22;;;23.52;100.00
42621;BME280;28252;53.336;-6.298;2023-07-28T01:58:22;99749.69;;;23.52;100.00
42621;BME280;28252;53.336;-6.298;2023-07-28T01:58:55;99748.00;;;23.50;100.00
42621;BME280;28252;53.336;-6.298;2023-07-28T01:59:28;99743.38;;;23.51;100.00
42621;BME280;28252;53.336;-6.298;2023-07-28T02:00:03;99748.81;;;23.51;100.00
42621;BME280;28252;53.336;-6.298;2023-07-28T02:00:46;99750.50;;;23.52;100.00
42621;BME280;28252;53.336;-6.298;2023-07-28T02:01:19;99750.72;;;23.50;100.00
42621;BME280;28252;53.336;-6.298;2023-07-28T02:01:52;99755.13;;;23.52;100.00
42621;BME280;28252;53.336;-6.298;2023-07-28T02:02:27;99759.69;;;23.51;100.00
42621;BME280;28252;53.336;-6.298;2023-07-28T02:03:01;99752.59;;;23.50;100.00
42621;BME280;28252;53.336;-6.298;2023-07-28T02:03:34;99761.38;;;23.52;100.00
42621;BME280;28252;53.336;-6.298;2023-07-28T02:04:10;99755.31;;;23.50;100.00
42621;BME280;28252;53.336;-6.298;2023-07-28T02:04:44;99754.25;;;23.51;100.00
42621;BME280;28252;53.336;-6.298;2023-07-28T02:05:15;99753.44;;;23.50;100.00
42621;BME280;28252;53.336;-6.298;2023-07-28T02:05:48;99752.59;;;23.50;100.00
42621;BME280;28252;53.336;-6.298;2023-07-28T02:06:19;99751.53;;;23.51;100.00
42621;BME280;28252;53.336;-6.298;2023-07-28T02:06:50;99749.88;;;23.50;100.00
42621;BME280;28252;53.336;-6.298;2023-07-28T02:07:23;99748.00;;;23.50;100.00
42621;BME280;28252;53.336;-6.298;2023-07-28T02:07:57;99753.44;;;23.50;100.00
42621;BME280;28252;53.336;-6.298;2023-07-28T02:08:32;99745.28;;;23.50;100.00
42621;BME280;28252;53.336;-6.298;2023-07-28T02:09:08;99752.59;;;23.50;100.00
42621;BME280;28252;53.336;-6.298;2023-07-28T02:09:44;99752.59;;;23.50;100.00
42621;BME280;28252;53.336;-6.298;2023-07-28T02:10:15;99752.59;;;23.50;100.00
42621;BME280;28252;53.336;-6.298;2023-07-28T02:10:53;99748.22;;;23.49;100.00
42621;BME280;28252;53.336;-6.298;2023-07-28T02:11:24;99748.22;;;23.49;100.00
42621;BME280;28252;53.336;-6.298;2023-07-28T02:11:59;99754.47;;;23.49;100.00
42621;BME280;28252;53.336;-6.298;2023-07-28T02:13:25;99748.22;;;23.49;100.00
42621;BME280;28252;53.336;-6.298;2023-07-28T02:13:57;99750.94;;;23.49;100.00
42621;BME280;28252;53.336;-6.298;2023-07-28T02:14:29;99747.38;;;23.48;100.00
42621;BME280;28252;53.336;-6.298;2023-07-28T02:15:00;99749.28;;;23.48;100.00
42621;BME280;28252;53.336;-6.298;2023-07-28T02:15:31;99746.56;;;23.48;100.00
42621;BME280;28252;53.336;-6.298;2023-07-28T02:16:02;99755.53;;;23.48;100.00
42621;BME280;28252;53.336;-6.298;2023-07-28T02:16:37;99757.44;;;23.48;100.00
42621;BME280;28252;53.336;-6.298;2023-07-28T02:17:11;99754.72;;;23.48;100.00
42621;BME280;28252;53.336;-6.298;2023-07-28T02:17:46;99758.47;;;23.47;100.00
42621;BME280;28252;53.336;-6.298;2023-07-28T02:18:24;99753.84;;;23.47;100.00
42621;BME280;28252;53.336;-6.298;2023-07-28T02:18:59;99758.47;;;23.47;100.00
42621;BME280;28252;53.336;-6.298;2023-07-28T02:19:37;99753.03;;;23.47;100.00
42621;BME280;28252;53.336;-6.298;2023-07-28T02:20:11;99753.84;;;23.47;100.00
42621;BME280;28252;53.336;-6.298;2023-07-28T02:20:43;99753.03;;;23.47;100.00
42621;BME280;28252;53.336;-6.298;2023-07-28T02:21:19;99751.34;;;23.46;100.00
42621;BME280;28252;53.336;-6.298;2023-07-28T02:21:53;99758.47;;;23.47;100.00
42621;BME280;28252;53.336;-6.298;2023-07-28T02:22:26;99760.34;;;23.46;100.00
42621;BME280;28252;53.336;-6.298;2023-07-28T02:23:04;99759.28;;;23.47;100.00
42621;BME280;28252;53.336;-6.298;2023-07-28T02:23:38;99757.63;;;23.46;100.00
42621;BME280;28252;53.336;-6.298;2023-07-28T02:24:13;99758.47;;;23.47;100.00
42621;BME280;28252;53.336;-6.298;2023-07-28T02:25:43;99754.94;;;23.46;100.00
42621;BME280;28252;53.336;-6.298;2023-07-28T02:26:14;99756.78;;;23.46;100.00
42621;BME280;28252;53.336;-6.298;2023-07-28T02:26:45;99751.34;;;23.46;100.00
42621;BME280;28252;53.336;-6.298;2023-07-28T02:27:16;99754.06;;;23.46;100.00
42621;BME280;28252;53.336;-6.298;2023-07-28T02:27:47;99755.97;;;23.45;100.00
42621;BME280;28252;53.336;-6.298;2023-07-28T02:28:18;99757.63;;;23.46;100.00
42621;BME280;28252;53.336;-6.298;2023-07-28T02:28:49;99750.53;;;23.45;100.00
42621;BME280;28252;53.336;-6.298;2023-07-28T02:29:25;99749.69;;;23.45;100.00
42621;BME280;28252;53.336;-6.298;2023-07-28T02:30:01;99752.41;;;23.45;100.00
42621;BME280;28252;53.336;-6.298;2023-07-28T02:30:34;99749.69;;;23.45;100.00
42621;BME280;28252;53.336;-6.298;2023-07-28T02:31:05;99744.25;;;23.45;100.00
42621;BME280;28252;53.336;-6.298;2023-07-28T02:31:39;99749.69;;;23.45;100.00
42621;BME280;28252;53.336;-6.298;2023-07-28T02:32:14;99741.53;;;23.45;100.00
42621;BME280;28252;53.336;-6.298;2023-07-28T02:32:50;99743.41;;;23.44;100.00
42621;BME280;28252;53.336;-6.298;2023-07-28T02:33:21;99733.41;;;23.45;100.00
42621;BME280;28252;53.336;-6.298;2023-07-28T02:33:55;99738.84;;;23.45;100.00
42621;BME280;28252;53.336;-6.298;2023-07-28T02:34:28;99737.16;;;23.44;100.00
42621;BME280;28252;53.336;-6.298;2023-07-28T02:35:02;99741.75;;;23.43;100.00
42621;BME280;28252;53.336;-6.298;2023-07-28T02:35:35;99739.88;;;23.44;100.00
42621;BME280;28252;53.336;-6.298;2023-07-28T02:36:07;99742.59;;;23.44;100.00
42621;BME280;28252;53.336;-6.298;2023-07-28T02:36:40;99742.59;;;23.44;100.00
42621;BME280;28252;53.336;-6.298;2023-07-28T02:37:16;99742.59;;;23.44;100.00
42621;BME280;28252;53.336;-6.298;2023-07-28T02:37:47;99740.94;;;23.43;100.00
42621;BME280;28252;53.336;-6.298;2023-07-28T02:38:18;99734.44;;;23.44;100.00
42621;BME280;28252;53.336;-6.298;2023-07-28T02:38:50;99739.88;;;23.44;100.00
42621;BME280;28252;53.336;-6.298;2023-07-28T02:39:25;99735.50;;;23.43;100.00
42621;BME280;28252;53.336;-6.298;2023-07-28T02:39:58;99737.16;;;23.44;100.00
42621;BME280;28252;53.336;-6.298;2023-07-28T02:40:32;99737.16;;;23.44;100.00
42621;BME280;28252;53.336;-6.298;2023-07-28T02:41:03;99737.16;;;23.44;100.00
42621;BME280;28252;53.336;-6.298;2023-07-28T02:41:34;99739.03;;;23.43;100.00
42621;BME280;28252;53.336;-6.298;2023-07-28T02:42:11;99739.03;;;23.43;100.00
42621;BME280;28252;53.336;-6.298;2023-07-28T02:42:44;99748.03;;;23.44;100.00
42621;BME280;28252;53.336;-6.298;2023-07-28T02:43:15;99733.59;;;23.43;100.00
42621;BME280;28252;53.336;-6.298;2023-07-28T02:43:51;99749.09;;;23.43;100.00
42621;BME280;28252;53.336;-6.298;2023-07-28T02:44:24;99745.50;;;23.42;100.00
42621;BME280;28252;53.336;-6.298;2023-07-28T02:44:57;99737.16;;;23.44;100.00
42621;BME280;28252;53.336;-6.298;2023-07-28T02:45:30;99740.94;;;23.43;100.00
42621;BME280;28252;53.336;-6.298;2023-07-28T02:46:04;99740.09;;;23.42;100.00
42621;BME280;28252;53.336;-6.298;2023-07-28T02:46:37;99746.38;;;23.43;100.00
42621;BME280;28252;53.336;-6.298;2023-07-28T02:47:10;99740.94;;;23.43;100.00
42621;BME280;28252;53.336;-6.298;2023-07-28T02:47:43;99738.22;;;23.43;100.00
42621;BME280;28252;53.336;-6.298;2023-07-28T02:48:14;99741.75;;;23.43;100.00
42621;BME280;28252;53.336;-6.298;2023-07-28T02:48:50;99745.50;;;23.42;100.00
42621;BME280;28252;53.336;-6.298;2023-07-28T02:49:21;99740.94;;;23.43;100.00
42621;BME280;28252;53.336;-6.298;2023-07-28T02:49:52;99743.66;;;23.43;100.00
42621;BME280;28252;53.336;-6.298;2023-07-28T02:50:23;99749.09;;;23.43;100.00
42621;BME280;28252;53.336;-6.298;2023-07-28T02:50:54;99737.38;;;23.42;100.00
42621;BME280;28252;53.336;-6.298;2023-07-28T02:51:25;99737.56;;;23.41;100.00
42621;BME280;28252;53.336;-6.298;2023-07-28T02:51:56;99740.94;;;23.43;100.00
42621;BME280;28252;53.336;-6.298;2023-07-28T02:52:32;99744.69;;;23.42;100.00
42621;BME280;28252;53.336;-6.298;2023-07-28T02:53:07;99738.44;;;23.41;100.00
42621;BME280;28252;53.336;-6.298;2023-07-28T02:53:38;99734.84;;;23.41;100.00
42621;BME280;28252;53.336;-6.298;2023-07-28T02:54:09;99746.59;;;23.41;100.00
42621;BME280;28252;53.336;-6.298;2023-07-28T02:54:40;99733.00;;;23.41;100.00
42621;BME280;28252;53.336;-6.298;2023-07-28T02:55:14;99734.84;;;23.41;100.00
42621;BME280;28252;53.336;-6.298;2023-07-28T02:55:47;99732.13;;;23.41;100.00
42621;BME280;28252;53.336;-6.298;2023-07-28T02:56:20;99732.13;;;23.41;100.00
42621;BME280;28252;53.336;-6.298;2023-07-28T02:56:56;99729.41;;;23.41;100.00
42621;BME280;28252;53.336;-6.298;2023-07-28T02:57:29;99728.59;;;23.40;100.00
42621;BME280;28252;53.336;-6.298;2023-07-28T02:58:02;99727.56;;;23.41;100.00
42621;BME280;28252;53.336;-6.298;2023-07-28T02:58:38;99726.69;;;23.41;100.00
42621;BME280;28252;53.336;-6.298;2023-07-28T02:59:09;99730.50;;;23.40;100.00
42621;BME280;28252;53.336;-6.298;2023-07-28T02:59:45;99720.44;;;23.40;100.00
42621;BME280;28252;53.336;-6.298;2023-07-28T03:00:18;99720.44;;;23.40;100.00
42621;BME280;28252;53.336;-6.298;2023-07-28T03:00:51;99719.63;;;23.40;100.00
42621;BME280;28252;53.336;-6.298;2023-07-28T03:01:28;99714.19;;;23.40;100.00
42621;BME280;28252;53.336;-6.298;2023-07-28T03:02:02;99718.75;;;23.39;100.00
42621;BME280;28252;53.336;-6.298;2023-07-28T03:02:37;99715.22;;;23.39;100.00
42621;BME280;28252;53.336;-6.298;2023-07-28T03:03:10;99721.47;;;23.39;100.00
42621;BME280;28252;53.336;-6.298;2023-07-28T03:03:47;99718.75;;;23.39;100.00
42621;BME280;28252;53.336;-6.298;2023-07-28T03:04:18;99715.22;;;23.39;100.00
42621;BME280;28252;53.336;-6.298;2023-07-28T03:05:13;99720.66;;;23.39;100.00
42621;BME280;28252;53.336;-6.298;2023-07-28T03:06:02;99715.22;;;23.39;100.00
42621;BME280;28252;53.336;-6.298;2023-07-28T03:06:35;99721.69;;;23.38;100.00
42621;BME280;28252;53.336;-6.298;2023-07-28T03:07:08;99727.13;;;23.38;100.00
42621;BME280;28252;53.336;-6.298;2023-07-28T03:07:47;99717.94;;;23.39;100.00
42621;BME280;28252;53.336;-6.298;2023-07-28T03:08:20;99724.41;;;23.38;100.00
42621;BME280;28252;53.336;-6.298;2023-07-28T03:08:58;99726.31;;;23.37;100.00
42621;BME280;28252;53.336;-6.298;2023-07-28T03:09:50;99718.97;;;23.38;100.00
42621;BME280;28252;53.336;-6.298;2023-07-28T03:10:26;99720.88;;;23.37;100.00
42621;BME280;28252;53.336;-6.298;2023-07-28T03:10:59;99728.19;;;23.37;100.00
42621;BME280;28252;53.336;-6.298;2023-07-28T03:11:38;99727.13;;;23.38;100.00
42621;BME280;28252;53.336;-6.298;2023-07-28T03:12:09;99727.97;;;23.38;100.00
42621;BME280;28252;53.336;-6.298;2023-07-28T03:12:42;99730.09;;;23.36;100.00
42621;BME280;28252;53.336;-6.298;2023-07-28T03:13:16;99728.19;;;23.37;100.00
42621;BME280;28252;53.336;-6.298;2023-07-28T03:13:47;99731.75;;;23.37;100.00
42621;BME280;28252;53.336;-6.298;2023-07-28T03:14:22;99728.19;;;23.37;100.00
42621;BME280;28252;53.336;-6.298;2023-07-28T03:14:53;99730.91;;;23.37;100.00
42621;BME280;28252;53.336;-6.298;2023-07-28T03:15:27;99725.47;;;23.37;100.00
42621;BME280;28252;53.336;-6.298;2023-07-28T03:16:02;99723.81;;;23.36;100.00
42621;BME280;28252;53.336;-6.298;2023-07-28T03:16:35;99730.09;;;23.36;100.00
42621;BME280;28252;53.336;-6.298;2023-07-28T03:17:09;99725.47;;;23.37;100.00